sensor_id;sensor_type;location;lat;lon;timestamp;P1;durP1;ratioP1;P2;durP2;ratioP2
20456;SDS011;10387;51.102;6.848;2023-05-01T00:01:00;3.47;;;3.00;;
20456;SDS011;10387;51.102;6.848;2023-05-01T00:03:29;3.47;;;3.13;;
20456;SDS011;10387;51.102;6.848;2023-05-01T00:05:59;4.37;;;3.40;;
20456;SDS011;10387;51.102;6.848;2023-05-01T00:08:25;3.50;;;3.20;;
20456;SDS011;10387;51.102;6.848;2023-05-01T00:10:51;4.10;;;3.10;;
20456;SDS011;10387;51.102;6.848;2023-05-01T00:13:17;4.70;;;2.83;;
20456;SDS011;10387;51.102;6.848;2023-05-01T00:15:46;5.23;;;3.37;;
20456;SDS011;10387;51.102;6.848;2023-05-01T00:18:12;4.27;;;3.40;;
20456;SDS011;10387;51.102;6.848;2023-05-01T00:20:38;3.67;;;3.20;;
20456;SDS011;10387;51.102;6.848;2023-05-01T00:23:04;4.20;;;3.30;;
20456;SDS011;10387;51.102;6.848;2023-05-01T00:25:31;5.10;;;3.50;;
20456;SDS011;10387;51.102;6.848;2023-05-01T00:27:57;4.13;;;3.10;;
20456;SDS011;10387;51.102;6.848;2023-05-01T00:30:24;4.07;;;3.30;;
20456;SDS011;10387;51.102;6.848;2023-05-01T00:32:51;6.27;;;3.33;;
20456;SDS011;10387;51.102;6.848;2023-05-01T00:35:18;3.47;;;3.00;;
20456;SDS011;10387;51.102;6.848;2023-05-01T00:37:44;4.10;;;3.40;;
20456;SDS011;10387;51.102;6.848;2023-05-01T00:40:10;4.00;;;3.20;;
20456;SDS011;10387;51.102;6.848;2023-05-01T00:42:36;4.03;;;3.53;;
20456;SDS011;10387;51.102;6.848;2023-05-01T00:45:04;3.77;;;3.47;;
20456;SDS011;10387;51.102;6.848;2023-05-01T00:47:31;3.97;;;3.20;;
20456;SDS011;10387;51.102;6.848;2023-05-01T00:49:59;3.97;;;3.23;;
20456;SDS011;10387;51.102;6.848;2023-05-01T00:52:25;4.97;;;3.33;;
20456;SDS011;10387;51.102;6.848;2023-05-01T00:54:51;4.37;;;3.00;;
20456;SDS011;10387;51.102;6.848;2023-05-01T00:57:18;3.53;;;3.10;;
20456;SDS011;10387;51.102;6.848;2023-05-01T00:59:45;3.27;;;2.97;;
20456;SDS011;10387;51.102;6.848;2023-05-01T01:02:11;4.93;;;3.47;;
20456;SDS011;10387;51.102;6.848;2023-05-01T01:04:41;5.37;;;3.57;;
20456;SDS011;10387;51.102;6.848;2023-05-01T01:09:55;3.83;;;3.20;;
20456;SDS011;10387;51.102;6.848;2023-05-01T01:15:18;4.67;;;3.37;;
20456;SDS011;10387;51.102;6.848;2023-05-01T01:17:57;4.13;;;3.40;;
20456;SDS011;10387;51.102;6.848;2023-05-01T01:22:52;4.27;;;3.57;;
20456;SDS011;10387;51.102;6.848;2023-05-01T01:25:28;5.00;;;3.37;;
20456;SDS011;10387;51.102;6.848;2023-05-01T01:35:57;5.27;;;4.20;;
20456;SDS011;10387;51.102;6.848;2023-05-01T01:38:28;5.20;;;3.70;;
20456;SDS011;10387;51.102;6.848;2023-05-01T01:40:59;3.70;;;3.40;;
20456;SDS011;10387;51.102;6.848;2023-05-01T01:43:29;3.93;;;3.63;;
20456;SDS011;10387;51.102;6.848;2023-05-01T01:45:58;4.13;;;3.33;;
20456;SDS011;10387;51.102;6.848;2023-05-01T01:48:26;4.07;;;3.67;;
20456;SDS011;10387;51.102;6.848;2023-05-01T01:50:55;4.10;;;3.70;;
20456;SDS011;10387;51.102;6.848;2023-05-01T01:53:23;5.23;;;4.00;;
20456;SDS011;10387;51.102;6.848;2023-05-01T01:55:50;4.20;;;3.87;;
20456;SDS011;10387;51.102;6.848;2023-05-01T01:58:17;4.47;;;4.07;;
20456;SDS011;10387;51.102;6.848;2023-05-01T02:00:50;5.53;;;4.20;;
20456;SDS011;10387;51.102;6.848;2023-05-01T02:03:17;5.07;;;4.30;;
20456;SDS011;10387;51.102;6.848;2023-05-01T02:05:45;4.30;;;3.70;;
20456;SDS011;10387;51.102;6.848;2023-05-01T02:08:12;5.50;;;4.10;;
20456;SDS011;10387;51.102;6.848;2023-05-01T02:10:40;4.67;;;3.97;;
20456;SDS011;10387;51.102;6.848;2023-05-01T02:13:06;5.70;;;4.60;;
20456;SDS011;10387;51.102;6.848;2023-05-01T02:15:34;4.63;;;4.13;;
20456;SDS011;10387;51.102;6.848;2023-05-01T02:18:01;4.47;;;4.07;;
20456;SDS011;10387;51.102;6.848;2023-05-01T02:20:29;5.27;;;4.20;;
20456;SDS011;10387;51.102;6.848;2023-05-01T02:22:55;4.93;;;4.43;;
20456;SDS011;10387;51.102;6.848;2023-05-01T02:25:22;5.50;;;4.20;;
20456;SDS011;10387;51.102;6.848;2023-05-01T02:27:54;5.53;;;4.23;;
20456;SDS011;10387;51.102;6.848;2023-05-01T02:30:20;5.10;;;4.30;;
20456;SDS011;10387;51.102;6.848;2023-05-01T02:32:46;5.20;;;4.70;;
20456;SDS011;10387;51.102;6.848;2023-05-01T02:35:13;4.57;;;4.17;;
20456;SDS011;10387;51.102;6.848;2023-05-01T02:37:41;6.50;;;4.80;;
20456;SDS011;10387;51.102;6.848;2023-05-01T02:40:07;4.77;;;4.33;;
20456;SDS011;10387;51.102;6.848;2023-05-01T02:42:34;3.97;;;3.57;;
20456;SDS011;10387;51.102;6.848;2023-05-01T02:45:02;4.50;;;4.10;;
20456;SDS011;10387;51.102;6.848;2023-05-01T02:47:31;5.17;;;4.67;;
20456;SDS011;10387;51.102;6.848;2023-05-01T02:49:58;4.60;;;4.20;;
20456;SDS011;10387;51.102;6.848;2023-05-01T02:52:25;7.17;;;4.33;;
20456;SDS011;10387;51.102;6.848;2023-05-01T02:55:03;5.03;;;4.37;;
20456;SDS011;10387;51.102;6.848;2023-05-01T02:57:31;4.83;;;4.33;;
20456;SDS011;10387;51.102;6.848;2023-05-01T02:59:57;6.03;;;4.40;;
20456;SDS011;10387;51.102;6.848;2023-05-01T03:02:23;4.90;;;4.17;;
20456;SDS011;10387;51.102;6.848;2023-05-01T03:04:49;4.53;;;4.13;;
20456;SDS011;10387;51.102;6.848;2023-05-01T03:07:15;4.97;;;4.23;;
20456;SDS011;10387;51.102;6.848;2023-05-01T03:09:41;5.90;;;4.63;;
20456;SDS011;10387;51.102;6.848;2023-05-01T03:12:07;5.33;;;4.77;;
20456;SDS011;10387;51.102;6.848;2023-05-01T03:14:33;5.23;;;4.50;;
20456;SDS011;10387;51.102;6.848;2023-05-01T03:16:59;4.90;;;4.40;;
20456;SDS011;10387;51.102;6.848;2023-05-01T03:19:25;5.23;;;4.13;;
20456;SDS011;10387;51.102;6.848;2023-05-01T03:21:52;4.77;;;4.30;;
20456;SDS011;10387;51.102;6.848;2023-05-01T03:24:18;4.57;;;4.17;;
20456;SDS011;10387;51.102;6.848;2023-05-01T03:26:44;4.83;;;4.43;;
20456;SDS011;10387;51.102;6.848;2023-05-01T03:29:10;6.53;;;5.07;;
20456;SDS011;10387;51.102;6.848;2023-05-01T03:31:38;5.07;;;4.50;;
20456;SDS011;10387;51.102;6.848;2023-05-01T03:34:06;5.07;;;4.60;;
20456;SDS011;10387;51.102;6.848;2023-05-01T03:36:32;5.40;;;4.70;;
20456;SDS011;10387;51.102;6.848;2023-05-01T03:38:58;5.60;;;4.77;;
20456;SDS011;10387;51.102;6.848;2023-05-01T03:41:25;4.73;;;4.33;;
20456;SDS011;10387;51.102;6.848;2023-05-01T03:44:08;6.27;;;4.80;;
20456;SDS011;10387;51.102;6.848;2023-05-01T03:46:38;5.57;;;5.00;;
20456;SDS011;10387;51.102;6.848;2023-05-01T03:49:06;5.63;;;4.10;;
20456;SDS011;10387;51.102;6.848;2023-05-01T03:51:38;5.87;;;4.90;;
20456;SDS011;10387;51.102;6.848;2023-05-01T03:54:04;6.33;;;4.57;;
20456;SDS011;10387;51.102;6.848;2023-05-01T03:56:44;5.27;;;4.57;;
20456;SDS011;10387;51.102;6.848;2023-05-01T03:59:10;4.80;;;4.37;;
20456;SDS011;10387;51.102;6.848;2023-05-01T04:01:37;4.87;;;4.10;;
20456;SDS011;10387;51.102;6.848;2023-05-01T04:04:04;4.97;;;4.23;;
20456;SDS011;10387;51.102;6.848;2023-05-01T04:06:32;5.10;;;4.60;;
20456;SDS011;10387;51.102;6.848;2023-05-01T04:08:58;6.17;;;5.13;;
20456;SDS011;10387;51.102;6.848;2023-05-01T04:11:24;5.23;;;4.73;;
20456;SDS011;10387;51.102;6.848;2023-05-01T04:13:51;5.20;;;4.57;;
20456;SDS011;10387;51.102;6.848;2023-05-01T04:16:18;7.27;;;5.57;;
20456;SDS011;10387;51.102;6.848;2023-05-01T04:18:45;5.00;;;4.43;;
20456;SDS011;10387;51.102;6.848;2023-05-01T04:21:11;5.60;;;5.10;;
20456;SDS011;10387;51.102;6.848;2023-05-01T04:23:38;7.23;;;5.20;;
20456;SDS011;10387;51.102;6.848;2023-05-01T04:26:04;5.13;;;4.50;;
20456;SDS011;10387;51.102;6.848;2023-05-01T04:28:31;6.03;;;4.83;;
20456;SDS011;10387;51.102;6.848;2023-05-01T04:30:58;6.80;;;4.60;;
20456;SDS011;10387;51.102;6.848;2023-05-01T04:33:24;8.07;;;5.40;;
20456;SDS011;10387;51.102;6.848;2023-05-01T04:35:53;4.80;;;4.30;;
20456;SDS011;10387;51.102;6.848;2023-05-01T04:38:19;8.00;;;5.63;;
20456;SDS011;10387;51.102;6.848;2023-05-01T04:40:46;5.97;;;4.70;;
20456;SDS011;10387;51.102;6.848;2023-05-01T04:43:12;6.83;;;5.43;;
20456;SDS011;10387;51.102;6.848;2023-05-01T04:45:42;5.33;;;4.83;;
20456;SDS011;10387;51.102;6.848;2023-05-01T04:48:09;6.37;;;5.17;;
20456;SDS011;10387;51.102;6.848;2023-05-01T04:50:35;5.73;;;5.07;;
20456;SDS011;10387;51.102;6.848;2023-05-01T04:53:02;5.77;;;4.70;;
20456;SDS011;10387;51.102;6.848;2023-05-01T04:55:32;5.60;;;4.97;;
20456;SDS011;10387;51.102;6.848;2023-05-01T04:58:05;5.53;;;4.97;;
20456;SDS011;10387;51.102;6.848;2023-05-01T05:00:33;5.00;;;4.60;;
20456;SDS011;10387;51.102;6.848;2023-05-01T05:03:00;4.97;;;4.47;;
20456;SDS011;10387;51.102;6.848;2023-05-01T05:05:26;5.27;;;4.70;;
20456;SDS011;10387;51.102;6.848;2023-05-01T05:07:52;6.10;;;4.50;;
20456;SDS011;10387;51.102;6.848;2023-05-01T05:10:26;6.27;;;4.57;;
20456;SDS011;10387;51.102;6.848;2023-05-01T05:13:08;4.63;;;4.13;;
20456;SDS011;10387;51.102;6.848;2023-05-01T05:15:35;5.40;;;4.17;;
20456;SDS011;10387;51.102;6.848;2023-05-01T05:18:02;5.57;;;4.63;;
20456;SDS011;10387;51.102;6.848;2023-05-01T05:20:30;4.90;;;4.17;;
20456;SDS011;10387;51.102;6.848;2023-05-01T05:22:56;5.23;;;4.30;;
20456;SDS011;10387;51.102;6.848;2023-05-01T05:25:23;4.93;;;4.53;;
20456;SDS011;10387;51.102;6.848;2023-05-01T05:27:51;4.70;;;4.20;;
20456;SDS011;10387;51.102;6.848;2023-05-01T05:30:18;4.60;;;4.20;;
20456;SDS011;10387;51.102;6.848;2023-05-01T05:32:45;4.93;;;4.20;;
20456;SDS011;10387;51.102;6.848;2023-05-01T05:35:12;4.40;;;4.00;;
20456;SDS011;10387;51.102;6.848;2023-05-01T05:37:39;5.03;;;4.20;;
20456;SDS011;10387;51.102;6.848;2023-05-01T05:40:05;4.97;;;4.50;;
20456;SDS011;10387;51.102;6.848;2023-05-01T05:42:39;4.33;;;3.70;;
20456;SDS011;10387;51.102;6.848;2023-05-01T05:45:06;4.13;;;3.73;;
20456;SDS011;10387;51.102;6.848;2023-05-01T05:47:33;4.90;;;4.10;;
20456;SDS011;10387;51.102;6.848;2023-05-01T05:49:59;5.33;;;3.40;;
20456;SDS011;10387;51.102;6.848;2023-05-01T05:52:26;4.90;;;3.90;;
20456;SDS011;10387;51.102;6.848;2023-05-01T05:54:52;4.03;;;3.60;;
20456;SDS011;10387;51.102;6.848;2023-05-01T05:57:18;6.70;;;3.80;;
20456;SDS011;10387;51.102;6.848;2023-05-01T05:59:48;4.33;;;3.73;;
20456;SDS011;10387;51.102;6.848;2023-05-01T06:02:17;4.23;;;3.83;;
20456;SDS011;10387;51.102;6.848;2023-05-01T06:04:43;5.23;;;3.83;;
20456;SDS011;10387;51.102;6.848;2023-05-01T06:07:09;5.23;;;3.17;;
20456;SDS011;10387;51.102;6.848;2023-05-01T06:09:35;4.20;;;3.80;;
20456;SDS011;10387;51.102;6.848;2023-05-01T06:12:02;5.23;;;3.93;;
20456;SDS011;10387;51.102;6.848;2023-05-01T06:14:30;4.67;;;3.90;;
20456;SDS011;10387;51.102;6.848;2023-05-01T06:16:57;4.77;;;3.90;;
20456;SDS011;10387;51.102;6.848;2023-05-01T06:19:23;3.97;;;3.57;;
20456;SDS011;10387;51.102;6.848;2023-05-01T06:21:54;5.10;;;3.67;;
20456;SDS011;10387;51.102;6.848;2023-05-01T06:24:21;4.63;;;3.70;;
20456;SDS011;10387;51.102;6.848;2023-05-01T06:26:49;5.30;;;3.70;;
20456;SDS011;10387;51.102;6.848;2023-05-01T06:29:15;4.30;;;3.90;;
20456;SDS011;10387;51.102;6.848;2023-05-01T06:31:42;3.87;;;3.50;;
20456;SDS011;10387;51.102;6.848;2023-05-01T06:34:08;4.37;;;3.80;;
20456;SDS011;10387;51.102;6.848;2023-05-01T06:36:44;4.70;;;3.90;;
20456;SDS011;10387;51.102;6.848;2023-05-01T06:39:10;5.03;;;4.07;;
20456;SDS011;10387;51.102;6.848;2023-05-01T06:41:37;4.77;;;4.27;;
20456;SDS011;10387;51.102;6.848;2023-05-01T06:44:03;5.03;;;4.07;;
20456;SDS011;10387;51.102;6.848;2023-05-01T06:46:29;7.50;;;4.70;;
20456;SDS011;10387;51.102;6.848;2023-05-01T06:48:55;5.33;;;3.83;;
20456;SDS011;10387;51.102;6.848;2023-05-01T06:51:21;4.87;;;4.47;;
20456;SDS011;10387;51.102;6.848;2023-05-01T06:53:47;4.50;;;3.97;;
20456;SDS011;10387;51.102;6.848;2023-05-01T06:56:13;4.87;;;4.33;;
20456;SDS011;10387;51.102;6.848;2023-05-01T06:58:40;4.47;;;4.07;;
20456;SDS011;10387;51.102;6.848;2023-05-01T07:01:06;5.00;;;4.07;;
20456;SDS011;10387;51.102;6.848;2023-05-01T07:03:32;4.33;;;4.00;;
20456;SDS011;10387;51.102;6.848;2023-05-01T07:05:58;3.70;;;3.43;;
20456;SDS011;10387;51.102;6.848;2023-05-01T07:08:24;3.93;;;3.63;;
20456;SDS011;10387;51.102;6.848;2023-05-01T07:10:52;4.33;;;3.93;;
20456;SDS011;10387;51.102;6.848;2023-05-01T07:13:18;4.07;;;3.60;;
20456;SDS011;10387;51.102;6.848;2023-05-01T07:15:44;5.20;;;3.67;;
20456;SDS011;10387;51.102;6.848;2023-05-01T07:18:10;4.53;;;3.90;;
20456;SDS011;10387;51.102;6.848;2023-05-01T07:20:37;4.57;;;4.00;;
20456;SDS011;10387;51.102;6.848;2023-05-01T07:23:03;4.67;;;4.07;;
20456;SDS011;10387;51.102;6.848;2023-05-01T07:25:29;4.00;;;3.60;;
20456;SDS011;10387;51.102;6.848;2023-05-01T07:27:55;4.30;;;3.70;;
20456;SDS011;10387;51.102;6.848;2023-05-01T07:30:22;3.50;;;3.20;;
20456;SDS011;10387;51.102;6.848;2023-05-01T07:32:48;6.37;;;3.80;;
20456;SDS011;10387;51.102;6.848;2023-05-01T07:35:14;3.67;;;3.30;;
20456;SDS011;10387;51.102;6.848;2023-05-01T07:37:40;3.43;;;3.00;;
20456;SDS011;10387;51.102;6.848;2023-05-01T07:40:06;3.87;;;3.57;;
20456;SDS011;10387;51.102;6.848;2023-05-01T07:42:33;4.10;;;3.70;;
20456;SDS011;10387;51.102;6.848;2023-05-01T07:45:00;3.80;;;3.40;;
20456;SDS011;10387;51.102;6.848;2023-05-01T07:47:27;4.07;;;3.70;;
20456;SDS011;10387;51.102;6.848;2023-05-01T07:49:54;3.83;;;3.43;;
20456;SDS011;10387;51.102;6.848;2023-05-01T07:52:20;3.80;;;3.40;;
20456;SDS011;10387;51.102;6.848;2023-05-01T07:54:49;5.20;;;3.73;;
20456;SDS011;10387;51.102;6.848;2023-05-01T07:57:16;4.07;;;3.50;;
20456;SDS011;10387;51.102;6.848;2023-05-01T07:59:42;5.40;;;3.33;;
20456;SDS011;10387;51.102;6.848;2023-05-01T08:02:08;3.90;;;3.50;;
20456;SDS011;10387;51.102;6.848;2023-05-01T08:04:34;4.60;;;3.50;;
20456;SDS011;10387;51.102;6.848;2023-05-01T08:07:00;4.00;;;3.60;;
20456;SDS011;10387;51.102;6.848;2023-05-01T08:09:26;4.70;;;3.60;;
20456;SDS011;10387;51.102;6.848;2023-05-01T08:11:52;4.63;;;3.23;;
20456;SDS011;10387;51.102;6.848;2023-05-01T08:14:18;4.03;;;3.60;;
20456;SDS011;10387;51.102;6.848;2023-05-01T08:16:44;4.23;;;3.50;;
20456;SDS011;10387;51.102;6.848;2023-05-01T08:19:10;4.53;;;3.43;;
20456;SDS011;10387;51.102;6.848;2023-05-01T08:21:36;4.27;;;3.87;;
20456;SDS011;10387;51.102;6.848;2023-05-01T08:24:02;4.27;;;3.80;;
20456;SDS011;10387;51.102;6.848;2023-05-01T08:26:28;3.37;;;2.90;;
20456;SDS011;10387;51.102;6.848;2023-05-01T08:28:55;4.23;;;3.87;;
20456;SDS011;10387;51.102;6.848;2023-05-01T08:31:20;4.30;;;3.87;;
20456;SDS011;10387;51.102;6.848;2023-05-01T08:33:49;4.60;;;3.57;;
20456;SDS011;10387;51.102;6.848;2023-05-01T08:36:15;4.10;;;3.73;;
20456;SDS011;10387;51.102;6.848;2023-05-01T08:38:41;4.20;;;3.80;;
20456;SDS011;10387;51.102;6.848;2023-05-01T08:41:07;4.07;;;3.67;;
20456;SDS011;10387;51.102;6.848;2023-05-01T08:43:33;5.97;;;4.00;;
20456;SDS011;10387;51.102;6.848;2023-05-01T08:45:59;3.80;;;3.40;;
20456;SDS011;10387;51.102;6.848;2023-05-01T08:48:26;6.13;;;3.77;;
20456;SDS011;10387;51.102;6.848;2023-05-01T08:50:54;3.80;;;3.37;;
20456;SDS011;10387;51.102;6.848;2023-05-01T08:53:21;4.10;;;3.63;;
20456;SDS011;10387;51.102;6.848;2023-05-01T08:55:48;5.07;;;3.43;;
20456;SDS011;10387;51.102;6.848;2023-05-01T08:58:16;4.77;;;3.90;;
20456;SDS011;10387;51.102;6.848;2023-05-01T09:00:43;3.80;;;3.50;;
20456;SDS011;10387;51.102;6.848;2023-05-01T09:03:10;3.50;;;3.20;;
20456;SDS011;10387;51.102;6.848;2023-05-01T09:05:37;4.33;;;3.50;;
20456;SDS011;10387;51.102;6.848;2023-05-01T09:08:03;4.90;;;3.73;;
20456;SDS011;10387;51.102;6.848;2023-05-01T09:10:30;4.00;;;3.30;;
20456;SDS011;10387;51.102;6.848;2023-05-01T09:12:59;4.10;;;3.70;;
20456;SDS011;10387;51.102;6.848;2023-05-01T09:15:26;3.40;;;3.10;;
20456;SDS011;10387;51.102;6.848;2023-05-01T09:17:52;4.23;;;3.60;;
20456;SDS011;10387;51.102;6.848;2023-05-01T09:20:19;3.80;;;3.50;;
20456;SDS011;10387;51.102;6.848;2023-05-01T09:22:45;4.80;;;3.60;;
20456;SDS011;10387;51.102;6.848;2023-05-01T09:25:12;5.57;;;3.80;;
20456;SDS011;10387;51.102;6.848;2023-05-01T09:27:38;5.97;;;3.70;;
20456;SDS011;10387;51.102;6.848;2023-05-01T09:30:04;4.20;;;3.80;;
20456;SDS011;10387;51.102;6.848;2023-05-01T09:32:31;4.63;;;3.60;;
20456;SDS011;10387;51.102;6.848;2023-05-01T09:35:08;4.97;;;3.43;;
20456;SDS011;10387;51.102;6.848;2023-05-01T09:37:35;4.20;;;3.83;;
20456;SDS011;10387;51.102;6.848;2023-05-01T09:42:34;4.27;;;3.37;;
20456;SDS011;10387;51.102;6.848;2023-05-01T09:45:02;4.20;;;3.80;;
20456;SDS011;10387;51.102;6.848;2023-05-01T09:47:28;4.13;;;3.40;;
20456;SDS011;10387;51.102;6.848;2023-05-01T09:49:55;3.87;;;3.57;;
20456;SDS011;10387;51.102;6.848;2023-05-01T09:52:22;4.07;;;3.73;;
20456;SDS011;10387;51.102;6.848;2023-05-01T09:54:49;5.57;;;4.20;;
20456;SDS011;10387;51.102;6.848;2023-05-01T09:57:15;5.47;;;3.97;;
20456;SDS011;10387;51.102;6.848;2023-05-01T09:59:41;4.10;;;3.70;;
20456;SDS011;10387;51.102;6.848;2023-05-01T10:02:13;3.50;;;3.20;;
20456;SDS011;10387;51.102;6.848;2023-05-01T10:04:56;4.03;;;3.67;;
20456;SDS011;10387;51.102;6.848;2023-05-01T10:07:22;4.20;;;3.77;;
20456;SDS011;10387;51.102;6.848;2023-05-01T10:09:48;5.73;;;4.20;;
20456;SDS011;10387;51.102;6.848;2023-05-01T10:12:26;4.33;;;3.73;;
20456;SDS011;10387;51.102;6.848;2023-05-01T10:14:53;4.47;;;3.70;;
20456;SDS011;10387;51.102;6.848;2023-05-01T10:17:19;4.47;;;4.00;;
20456;SDS011;10387;51.102;6.848;2023-05-01T10:19:46;4.30;;;3.90;;
20456;SDS011;10387;51.102;6.848;2023-05-01T10:22:13;4.80;;;4.40;;
20456;SDS011;10387;51.102;6.848;2023-05-01T10:24:39;4.43;;;3.97;;
20456;SDS011;10387;51.102;6.848;2023-05-01T10:27:06;4.63;;;4.10;;
20456;SDS011;10387;51.102;6.848;2023-05-01T10:29:36;4.47;;;4.10;;
20456;SDS011;10387;51.102;6.848;2023-05-01T10:32:02;4.60;;;4.20;;
20456;SDS011;10387;51.102;6.848;2023-05-01T10:34:29;5.40;;;4.30;;
20456;SDS011;10387;51.102;6.848;2023-05-01T10:36:57;5.53;;;5.07;;
20456;SDS011;10387;51.102;6.848;2023-05-01T10:39:28;6.17;;;5.57;;
20456;SDS011;10387;51.102;6.848;2023-05-01T10:44:24;5.23;;;4.73;;
20456;SDS011;10387;51.102;6.848;2023-05-01T10:46:51;5.40;;;4.87;;
20456;SDS011;10387;51.102;6.848;2023-05-01T10:49:17;6.10;;;5.03;;
20456;SDS011;10387;51.102;6.848;2023-05-01T10:54:31;4.87;;;4.47;;
20456;SDS011;10387;51.102;6.848;2023-05-01T10:56:58;6.00;;;4.90;;
20456;SDS011;10387;51.102;6.848;2023-05-01T10:59:25;5.83;;;5.33;;
20456;SDS011;10387;51.102;6.848;2023-05-01T11:01:52;6.33;;;5.73;;
20456;SDS011;10387;51.102;6.848;2023-05-01T11:12:05;6.90;;;6.20;;
20456;SDS011;10387;51.102;6.848;2023-05-01T11:17:43;6.00;;;5.40;;
20456;SDS011;10387;51.102;6.848;2023-05-01T11:20:03;5.83;;;5.30;;
20456;SDS011;10387;51.102;6.848;2023-05-01T11:22:30;5.37;;;4.80;;
20456;SDS011;10387;51.102;6.848;2023-05-01T11:24:56;6.90;;;5.43;;
20456;SDS011;10387;51.102;6.848;2023-05-01T11:27:22;5.47;;;4.40;;
20456;SDS011;10387;51.102;6.848;2023-05-01T11:29:48;4.77;;;3.10;;
20456;SDS011;10387;51.102;6.848;2023-05-01T11:32:18;3.30;;;3.00;;
20456;SDS011;10387;51.102;6.848;2023-05-01T11:34:45;3.90;;;3.50;;
20456;SDS011;10387;51.102;6.848;2023-05-01T11:37:11;3.67;;;3.20;;
20456;SDS011;10387;51.102;6.848;2023-05-01T11:39:45;3.50;;;3.20;;
20456;SDS011;10387;51.102;6.848;2023-05-01T11:42:11;3.70;;;3.17;;
20456;SDS011;10387;51.102;6.848;2023-05-01T11:44:37;3.23;;;2.90;;
20456;SDS011;10387;51.102;6.848;2023-05-01T11:47:03;2.50;;;2.30;;
20456;SDS011;10387;51.102;6.848;2023-05-01T11:49:31;3.23;;;2.50;;
20456;SDS011;10387;51.102;6.848;2023-05-01T11:51:57;2.20;;;2.00;;
20456;SDS011;10387;51.102;6.848;2023-05-01T11:54:23;2.20;;;2.00;;
20456;SDS011;10387;51.102;6.848;2023-05-01T11:56:59;3.10;;;2.90;;
20456;SDS011;10387;51.102;6.848;2023-05-01T11:59:25;3.20;;;2.53;;
20456;SDS011;10387;51.102;6.848;2023-05-01T12:01:51;2.53;;;2.33;;
20456;SDS011;10387;51.102;6.848;2023-05-01T12:04:24;4.07;;;2.70;;
20456;SDS011;10387;51.102;6.848;2023-05-01T12:06:52;2.53;;;2.30;;
20456;SDS011;10387;51.102;6.848;2023-05-01T12:09:22;2.50;;;2.13;;
20456;SDS011;10387;51.102;6.848;2023-05-01T12:11:51;2.57;;;1.80;;
20456;SDS011;10387;51.102;6.848;2023-05-01T12:14:18;2.40;;;2.20;;
20456;SDS011;10387;51.102;6.848;2023-05-01T12:16:45;2.63;;;2.43;;
20456;SDS011;10387;51.102;6.848;2023-05-01T12:19:12;4.30;;;2.87;;
20456;SDS011;10387;51.102;6.848;2023-05-01T12:21:39;3.73;;;3.00;;
20456;SDS011;10387;51.102;6.848;2023-05-01T12:24:17;3.20;;;2.97;;
20456;SDS011;10387;51.102;6.848;2023-05-01T12:26:44;2.67;;;2.07;;
20456;SDS011;10387;51.102;6.848;2023-05-01T12:29:11;2.37;;;2.13;;
20456;SDS011;10387;51.102;6.848;2023-05-01T12:31:47;2.60;;;2.40;;
20456;SDS011;10387;51.102;6.848;2023-05-01T12:34:13;2.17;;;1.97;;
20456;SDS011;10387;51.102;6.848;2023-05-01T12:36:40;2.50;;;2.30;;
20456;SDS011;10387;51.102;6.848;2023-05-01T12:39:06;4.30;;;2.07;;
20456;SDS011;10387;51.102;6.848;2023-05-01T12:44:21;3.10;;;2.70;;
20456;SDS011;10387;51.102;6.848;2023-05-01T12:49:23;5.23;;;3.10;;
20456;SDS011;10387;51.102;6.848;2023-05-01T12:51:49;3.17;;;2.70;;
20456;SDS011;10387;51.102;6.848;2023-05-01T12:56:45;3.23;;;2.50;;
20456;SDS011;10387;51.102;6.848;2023-05-01T12:59:24;3.47;;;2.53;;
20456;SDS011;10387;51.102;6.848;2023-05-01T13:04:23;2.97;;;2.30;;
20456;SDS011;10387;51.102;6.848;2023-05-01T13:06:50;2.83;;;2.63;;
20456;SDS011;10387;51.102;6.848;2023-05-01T13:09:17;3.17;;;2.87;;
20456;SDS011;10387;51.102;6.848;2023-05-01T13:11:55;2.90;;;2.60;;
20456;SDS011;10387;51.102;6.848;2023-05-01T13:14:21;3.00;;;2.70;;
20456;SDS011;10387;51.102;6.848;2023-05-01T13:16:47;5.13;;;2.90;;
20456;SDS011;10387;51.102;6.848;2023-05-01T13:19:23;2.17;;;2.07;;
20456;SDS011;10387;51.102;6.848;2023-05-01T13:21:50;3.33;;;2.47;;
20456;SDS011;10387;51.102;6.848;2023-05-01T13:24:16;2.23;;;2.03;;
20456;SDS011;10387;51.102;6.848;2023-05-01T13:26:43;2.60;;;2.40;;
20456;SDS011;10387;51.102;6.848;2023-05-01T13:29:12;2.57;;;2.37;;
20456;SDS011;10387;51.102;6.848;2023-05-01T13:31:41;2.50;;;2.30;;
20456;SDS011;10387;51.102;6.848;2023-05-01T13:34:08;2.60;;;2.40;;
20456;SDS011;10387;51.102;6.848;2023-05-01T13:36:34;2.10;;;2.00;;
20456;SDS011;10387;51.102;6.848;2023-05-01T13:39:00;2.03;;;1.93;;
20456;SDS011;10387;51.102;6.848;2023-05-01T13:41:27;2.10;;;2.00;;
20456;SDS011;10387;51.102;6.848;2023-05-01T13:43:54;2.50;;;2.30;;
20456;SDS011;10387;51.102;6.848;2023-05-01T13:46:22;2.83;;;2.57;;
20456;SDS011;10387;51.102;6.848;2023-05-01T13:48:48;3.23;;;2.57;;
20456;SDS011;10387;51.102;6.848;2023-05-01T13:51:19;3.17;;;2.30;;
20456;SDS011;10387;51.102;6.848;2023-05-01T13:53:46;2.27;;;2.00;;
20456;SDS011;10387;51.102;6.848;2023-05-01T13:56:12;2.57;;;2.37;;
20456;SDS011;10387;51.102;6.848;2023-05-01T13:58:39;2.53;;;2.33;;
20456;SDS011;10387;51.102;6.848;2023-05-01T14:01:05;3.03;;;2.43;;
20456;SDS011;10387;51.102;6.848;2023-05-01T14:03:39;2.93;;;2.60;;
20456;SDS011;10387;51.102;6.848;2023-05-01T14:06:12;2.63;;;2.43;;
20456;SDS011;10387;51.102;6.848;2023-05-01T14:08:38;2.90;;;2.70;;
20456;SDS011;10387;51.102;6.848;2023-05-01T14:11:05;3.40;;;3.10;;
20456;SDS011;10387;51.102;6.848;2023-05-01T14:13:32;3.57;;;2.77;;
20456;SDS011;10387;51.102;6.848;2023-05-01T14:15:58;2.93;;;2.73;;
20456;SDS011;10387;51.102;6.848;2023-05-01T14:18:24;4.40;;;3.63;;
20456;SDS011;10387;51.102;6.848;2023-05-01T14:20:51;4.60;;;3.97;;
20456;SDS011;10387;51.102;6.848;2023-05-01T14:23:17;3.80;;;3.50;;
20456;SDS011;10387;51.102;6.848;2023-05-01T14:25:45;4.73;;;4.33;;
20456;SDS011;10387;51.102;6.848;2023-05-01T14:28:13;5.43;;;3.87;;
20456;SDS011;10387;51.102;6.848;2023-05-01T14:30:40;4.93;;;3.70;;
20456;SDS011;10387;51.102;6.848;2023-05-01T14:33:09;4.60;;;4.10;;
20456;SDS011;10387;51.102;6.848;2023-05-01T14:35:36;5.17;;;4.77;;
20456;SDS011;10387;51.102;6.848;2023-05-01T14:38:06;5.70;;;5.10;;
20456;SDS011;10387;51.102;6.848;2023-05-01T14:40:33;4.10;;;3.70;;
20456;SDS011;10387;51.102;6.848;2023-05-01T14:42:59;3.80;;;3.50;;
20456;SDS011;10387;51.102;6.848;2023-05-01T14:45:26;4.53;;;4.13;;
20456;SDS011;10387;51.102;6.848;2023-05-01T14:47:52;4.40;;;4.03;;
20456;SDS011;10387;51.102;6.848;2023-05-01T14:50:19;5.43;;;4.70;;
20456;SDS011;10387;51.102;6.848;2023-05-01T14:52:45;5.50;;;4.40;;
20456;SDS011;10387;51.102;6.848;2023-05-01T14:55:11;6.53;;;5.53;;
20456;SDS011;10387;51.102;6.848;2023-05-01T14:57:37;8.10;;;6.53;;
20456;SDS011;10387;51.102;6.848;2023-05-01T15:00:04;6.00;;;5.20;;
20456;SDS011;10387;51.102;6.848;2023-05-01T15:02:31;6.07;;;4.97;;
20456;SDS011;10387;51.102;6.848;2023-05-01T15:04:57;7.47;;;4.33;;
20456;SDS011;10387;51.102;6.848;2023-05-01T15:07:23;4.10;;;3.70;;
20456;SDS011;10387;51.102;6.848;2023-05-01T15:09:49;4.00;;;3.60;;
20456;SDS011;10387;51.102;6.848;2023-05-01T15:12:16;4.83;;;4.37;;
20456;SDS011;10387;51.102;6.848;2023-05-01T15:14:42;4.47;;;4.07;;
20456;SDS011;10387;51.102;6.848;2023-05-01T15:17:08;4.47;;;4.07;;
20456;SDS011;10387;51.102;6.848;2023-05-01T15:19:34;5.00;;;4.57;;
20456;SDS011;10387;51.102;6.848;2023-05-01T15:22:01;4.97;;;4.47;;
20456;SDS011;10387;51.102;6.848;2023-05-01T15:24:28;4.80;;;4.40;;
20456;SDS011;10387;51.102;6.848;2023-05-01T15:26:54;5.27;;;4.73;;
20456;SDS011;10387;51.102;6.848;2023-05-01T15:29:20;4.00;;;3.70;;
20456;SDS011;10387;51.102;6.848;2023-05-01T15:31:46;4.70;;;4.30;;
20456;SDS011;10387;51.102;6.848;2023-05-01T15:34:13;5.63;;;4.43;;